createdAt,value
2023-01-18T00:08:44.756Z,94138.80
2023-01-18T00:18:56.571Z,94125.95
2023-01-18T00:29:01.081Z,94118.52
2023-01-18T00:39:05.387Z,94121.71
2023-01-18T00:49:09.343Z,94124.45
2023-01-18T00:59:15.623Z,94092.01
2023-01-18T01:09:31.190Z,94091.75
2023-01-18T01:19:53.593Z,94066.85
2023-01-18T01:30:14.094Z,94052.85
2023-01-18T01:40:18.350Z,94045.48
2023-01-18T01:50:33.562Z,94069.80
2023-01-18T02:00:40.342Z,94052.62
2023-01-18T02:11:03.191Z,93992.73
2023-01-18T02:21:44.630Z,93953.45
2023-01-18T02:32:02.169Z,93975.06
2023-01-18T02:43:01.296Z,93985.98
2023-01-18T02:53:05.361Z,94008.36
2023-01-18T03:03:20.718Z,94025.02
2023-01-18T03:13:50.839Z,94015.76
2023-01-18T03:23:56.012Z,94030.20
2023-01-18T03:34:22.808Z,94031.58
2023-01-18T03:44:51.551Z,93998.67
2023-01-18T03:55:58.909Z,93980.56
2023-01-18T04:06:38.441Z,93963.55
2023-01-18T04:16:56.069Z,93949.44
2023-01-18T04:27:04.528Z,93965.54
2023-01-18T04:37:12.118Z,93986.21
2023-01-18T04:47:36.775Z,93969.20
2023-01-18T04:58:12.916Z,93963.77
2023-01-18T05:08:23.493Z,93982.83
2023-01-18T05:18:53.984Z,93983.73
2023-01-18T05:29:01.484Z,93960.93
2023-01-18T05:39:18.461Z,93967.73
2023-01-18T05:49:28.575Z,93958.65
2023-01-18T05:59:55.326Z,93958.35
2023-01-18T06:10:15.972Z,93985.27
2023-01-18T06:20:42.213Z,94003.69
2023-01-18T06:31:08.973Z,94004.57
2023-01-18T06:41:13.419Z,93990.40
2023-01-18T06:51:20.713Z,94007.16
2023-01-18T07:01:55.099Z,94020.41
2023-01-18T07:12:27.820Z,94033.84
2023-01-18T07:22:34.841Z,94040.88
2023-01-18T07:33:07.301Z,94048.95
2023-01-18T07:43:45.088Z,94064.06
2023-01-18T07:54:17.254Z,94065.67
2023-01-18T08:04:50.235Z,94046.77
2023-01-18T08:15:18.063Z,94041.55
2023-01-18T08:25:51.659Z,94050.90
2023-01-18T08:36:32.023Z,94054.34
2023-01-18T08:46:49.679Z,94065.73
2023-01-18T08:56:59.534Z,94082.08
2023-01-18T09:07:09.334Z,94106.36
2023-01-18T09:17:37.164Z,94104.08
2023-01-18T09:27:46.912Z,94090.33
2023-01-18T09:37:51.325Z,94089.48
2023-01-18T09:48:05.272Z,94136.32
2023-01-18T09:58:47.642Z,94154.07
2023-01-18T10:09:07.479Z,94155.17
2023-01-18T10:19:34.040Z,94178.31
2023-01-18T10:29:54.946Z,94182.62
2023-01-18T10:40:07.744Z,94189.91
2023-01-18T10:50:18.254Z,94200.61
2023-01-18T11:00:29.145Z,94220.79
2023-01-18T11:10:36.374Z,94245.63
2023-01-18T11:21:27.889Z,94262.13
2023-01-18T11:31:50.703Z,94276.32
2023-01-18T11:42:22.016Z,94276.89
2023-01-18T11:52:49.580Z,94293.48
2023-01-18T12:03:31.038Z,94311.41
2023-01-18T12:14:13.025Z,94328.79
2023-01-18T12:24:54.326Z,94361.80
2023-01-18T12:35:24.205Z,94375.80
2023-01-18T12:45:41.450Z,94394.51
2023-01-18T12:55:52.344Z,94413.36
2023-01-18T13:06:01.669Z,94438.45
2023-01-18T13:16:39.802Z,94478.13
2023-01-18T13:26:43.999Z,94523.70
2023-01-18T13:36:48.069Z,94554.14
2023-01-18T13:46:52.642Z,94581.40
2023-01-18T13:57:32.720Z,94610.36
2023-01-18T14:08:12.668Z,94626.23
2023-01-18T14:18:53.721Z,94638.69
2023-01-18T14:29:17.355Z,94672.67
2023-01-18T14:39:33.076Z,94704.36
2023-01-18T14:50:03.672Z,94744.34
2023-01-18T15:00:18.791Z,94764.34
2023-01-18T15:10:24.643Z,94786.88
2023-01-18T15:20:29.188Z,94814.61
2023-01-18T15:30:34.136Z,94826.98
2023-01-18T15:41:04.862Z,94842.21
2023-01-18T15:51:12.655Z,94860.34
2023-01-18T16:01:24.646Z,94868.12
2023-01-18T16:11:47.952Z,94896.56
2023-01-18T16:21:59.330Z,94926.13
2023-01-18T16:32:30.755Z,94944.25
2023-01-18T16:43:13.889Z,94952.26
2023-01-18T16:53:27.095Z,94961.48
2023-01-18T17:03:36.873Z,94984.95
2023-01-18T17:13:42.582Z,94998.81
2023-01-18T17:23:59.862Z,95015.02
2023-01-18T17:34:30.056Z,95037.65
2023-01-18T17:44:58.539Z,95061.65
2023-01-18T17:55:27.464Z,95069.23
2023-01-18T18:06:03.096Z,95071.03
2023-01-18T18:16:20.214Z,95086.80
2023-01-18T18:26:47.290Z,95116.53
2023-01-18T18:36:52.667Z,95139.71
2023-01-18T18:46:58.470Z,95158.63
2023-01-18T18:57:04.400Z,95139.73
2023-01-18T19:07:15.166Z,95147.66
2023-01-18T19:17:54.030Z,95176.01
2023-01-18T19:28:55.994Z,95210.63
2023-01-18T19:39:26.259Z,95225.44
2023-01-18T19:49:42.049Z,95265.44
2023-01-18T19:59:47.513Z,95286.19
2023-01-18T20:10:15.031Z,95292.11
2023-01-18T20:20:52.877Z,95271.20
2023-01-18T20:31:00.134Z,95278.98
2023-01-18T20:41:08.596Z,95291.77
2023-01-18T20:51:14.915Z,95317.64
2023-01-18T21:01:21.663Z,95335.36
2023-01-18T21:12:07.441Z,95349.84
2023-01-18T21:22:16.056Z,95353.14
2023-01-18T21:33:13.651Z,95346.77
2023-01-18T21:43:46.480Z,95369.88
2023-01-18T21:54:36.779Z,95383.19
2023-01-18T22:05:21.134Z,95411.17
2023-01-18T22:16:30.437Z,95430.20
2023-01-18T22:27:08.873Z,95431.27
2023-01-18T22:38:38.313Z,95447.31
2023-01-18T22:49:45.475Z,95467.36
2023-01-18T23:00:42.129Z,95474.62
2023-01-18T23:11:19.467Z,95483.98
2023-01-18T23:22:24.629Z,95494.38
2023-01-18T23:32:52.961Z,95494.72
2023-01-18T23:43:48.605Z,95491.79
2023-01-18T23:54:45.844Z,95481.11
